Time;durP1;ratioP1;P1;durP2;ratioP2;P2;SDS_P1;SDS_P2;PMS_P1;PMS_P2;Temp;Humidity;BMP_temperature;BMP_pressure;BME280_temperature;BME280_humidity;BME280_pressure;Samples;Min_cycle;Max_cycle;Signal;HPM_P1;HPM_P2
2023/09/10 00:00:45;;;;;;;1.85;1.75;;;17.80;99.90;;;;;;5012794;28;20049;-73
2023/09/10 00:03:10;;;;;;;1.63;1.52;;;17.80;99.90;;;;;;4996492;28;20026;-73
2023/09/10 00:05:36;;;;;;;2.25;1.60;;;17.80;99.90;;;;;;5014989;28;20360;-73
2023/09/10 00:08:02;;;;;;;1.90;1.50;;;17.70;99.90;;;;;;5014658;28;20482;-74
2023/09/10 00:10:27;;;;;;;1.73;1.55;;;17.70;99.90;;;;;;5014510;28;20124;-73
2023/09/10 00:12:53;;;;;;;3.85;2.35;;;17.70;99.90;;;;;;5014701;28;20184;-73
2023/09/10 00:15:19;;;;;;;2.95;2.10;;;17.60;99.90;;;;;;5013599;28;20048;-73
2023/09/10 00:17:44;;;;;;;3.17;2.22;;;17.60;99.90;;;;;;5014562;28;20034;-74
2023/09/10 00:20:10;;;;;;;2.78;1.90;;;17.60;99.90;;;;;;5012173;28;20042;-74
2023/09/10 00:22:37;;;;;;;3.13;2.00;;;17.60;99.90;;;;;;5014034;28;20410;-74
2023/09/10 00:25:04;;;;;;;5.10;3.05;;;17.50;99.90;;;;;;4997276;28;20069;-73
2023/09/10 00:27:29;;;;;;;3.35;2.30;;;17.50;99.90;;;;;;5013941;28;20045;-73
2023/09/10 00:29:55;;;;;;;3.60;2.10;;;17.50;99.90;;;;;;4980160;28;20490;-74
2023/09/10 00:32:21;;;;;;;3.38;2.13;;;17.50;99.90;;;;;;5014177;28;20092;-73
2023/09/10 00:34:47;;;;;;;5.45;3.20;;;17.40;99.90;;;;;;4996855;28;20553;-74
2023/09/10 00:37:16;;;;;;;7.93;3.95;;;17.40;99.90;;;;;;5012987;28;20072;-74
2023/09/10 00:39:42;;;;;;;7.25;4.13;;;17.50;99.90;;;;;;4996397;28;20124;-73
2023/09/10 00:42:09;;;;;;;5.25;3.50;;;17.50;99.90;;;;;;5014425;28;20080;-73
2023/09/10 00:44:36;;;;;;;6.30;4.07;;;17.40;99.90;;;;;;5013772;28;20038;-73
2023/09/10 00:47:02;;;;;;;6.03;4.03;;;17.40;99.90;;;;;;5014108;28;20112;-74
2023/09/10 00:49:28;;;;;;;6.15;4.30;;;17.40;99.90;;;;;;5013036;28;20042;-74
2023/09/10 00:51:54;;;;;;;11.15;3.83;;;17.40;99.90;;;;;;5013339;28;20060;-74
2023/09/10 00:54:23;;;;;;;5.40;3.10;;;17.40;99.90;;;;;;5013531;28;20053;-73
2023/09/10 00:56:49;;;;;;;7.07;3.65;;;17.40;99.90;;;;;;4996355;28;20038;-73
2023/09/10 00:59:14;;;;;;;6.72;3.88;;;17.40;99.90;;;;;;5013304;28;20141;-73
2023/09/10 01:01:40;;;;;;;7.03;4.60;;;17.40;99.90;;;;;;5013969;28;20097;-73
2023/09/10 01:04:06;;;;;;;8.88;5.03;;;17.30;99.90;;;;;;5009969;28;20391;-73
2023/09/10 01:06:31;;;;;;;7.10;4.22;;;17.30;99.90;;;;;;5013169;28;20042;-74
2023/09/10 01:08:58;;;;;;;7.47;4.80;;;17.30;99.90;;;;;;5012685;28;20510;-73
2023/09/10 01:12:01;;;;;;;6.65;3.63;;;17.20;99.90;;;;;;5013308;28;20049;-73
2023/09/10 01:14:55;;;;;;;7.70;4.93;;;17.10;99.90;;;;;;5011082;28;20041;-73
2023/09/10 01:17:32;;;;;;;7.60;4.50;;;17.10;99.90;;;;;;5023740;28;20175;-73
2023/09/10 01:20:25;;;;;;;8.90;5.43;;;17.10;99.90;;;;;;5014925;28;20510;-73
2023/09/10 01:23:04;;;;;;;7.82;4.88;;;17.00;99.90;;;;;;5013757;28;20054;-73
2023/09/10 01:25:31;;;;;;;6.93;4.50;;;17.00;99.90;;;;;;4995991;28;20533;-74
2023/09/10 01:27:57;;;;;;;6.57;4.40;;;17.00;99.90;;;;;;5013545;28;20121;-74
2023/09/10 01:30:23;;;;;;;7.20;4.78;;;17.00;99.90;;;;;;4997306;28;20129;-74
2023/09/10 01:32:52;;;;;;;7.63;4.90;;;16.90;99.90;;;;;;5013173;28;20054;-73
2023/09/10 01:35:27;;;;;;;7.07;4.95;;;16.90;99.90;;;;;;5012278;28;20117;-74
2023/09/10 01:38:03;;;;;;;5.20;3.03;;;16.90;99.90;;;;;;5013453;28;20054;-73
2023/09/10 01:40:49;;;;;;;3.38;2.50;;;16.80;99.90;;;;;;5011628;28;20034;-73
2023/09/10 01:43:15;;;;;;;5.10;3.00;;;16.80;99.90;;;;;;5013640;28;20402;-73
2023/09/10 01:45:41;;;;;;;5.43;2.95;;;16.90;99.90;;;;;;5013299;28;20042;-73
2023/09/10 01:48:07;;;;;;;5.97;3.15;;;16.90;99.90;;;;;;5012719;28;20042;-73
2023/09/10 01:50:33;;;;;;;5.13;3.22;;;16.80;99.90;;;;;;5013342;28;20065;-74
2023/09/10 01:52:59;;;;;;;5.82;3.25;;;16.90;99.90;;;;;;5011543;28;20044;-74
2023/09/10 01:55:25;;;;;;;2.92;1.90;;;16.80;99.90;;;;;;4995660;28;20393;-74
2023/09/10 01:57:54;;;;;;;3.75;2.15;;;16.80;99.90;;;;;;5013101;28;20037;-73
2023/09/10 02:00:19;;;;;;;3.40;2.10;;;16.80;99.90;;;;;;5012506;28;20574;-73
2023/09/10 02:02:45;;;;;;;5.07;2.15;;;16.80;99.90;;;;;;5013341;28;20116;-74
2023/09/10 02:05:10;;;;;;;3.38;2.55;;;16.70;99.90;;;;;;5013318;28;20060;-74
2023/09/10 02:07:36;;;;;;;4.20;3.33;;;16.70;99.90;;;;;;5016567;28;20457;-73
2023/09/10 02:10:02;;;;;;;5.38;3.70;;;16.70;99.90;;;;;;5015979;28;20121;-74
2023/09/10 02:12:27;;;;;;;4.68;3.28;;;16.60;99.90;;;;;;4995869;28;20045;-73
2023/09/10 02:14:53;;;;;;;4.53;3.17;;;16.60;99.90;;;;;;5016540;28;20049;-73
2023/09/10 02:17:18;;;;;;;4.60;2.95;;;16.50;99.90;;;;;;5017043;28;20042;-74
2023/09/10 02:19:44;;;;;;;3.88;3.28;;;16.40;99.90;;;;;;5017008;28;20445;-74
2023/09/10 02:22:10;;;;;;;4.13;3.28;;;16.40;99.90;;;;;;5015562;28;20448;-73
2023/09/10 02:24:35;;;;;;;3.60;2.90;;;16.40;99.90;;;;;;5016711;28;20049;-74
2023/09/10 02:27:01;;;;;;;5.80;3.70;;;16.40;99.90;;;;;;5016720;28;20185;-74
2023/09/10 02:29:26;;;;;;;5.65;3.65;;;16.40;99.90;;;;;;5016275;28;20042;-74
2023/09/10 02:31:52;;;;;;;4.88;3.55;;;16.40;99.90;;;;;;5015308;28;20084;-74
2023/09/10 02:34:17;;;;;;;6.30;3.92;;;16.40;99.90;;;;;;5002851;28;20085;-73
2023/09/10 02:36:43;;;;;;;6.60;4.68;;;16.40;99.90;;;;;;5000017;28;20077;-74
2023/09/10 02:39:09;;;;;;;7.53;4.68;;;16.40;99.90;;;;;;4995851;28;20057;-73
2023/09/10 02:41:34;;;;;;;7.40;4.93;;;16.40;99.90;;;;;;4995254;28;20503;-74
2023/09/10 02:44:00;;;;;;;8.40;5.55;;;16.40;99.90;;;;;;4996070;28;20070;-73
2023/09/10 02:46:27;;;;;;;8.35;5.50;;;16.40;99.90;;;;;;4996620;28;20109;-73
2023/09/10 02:48:53;;;;;;;8.52;4.97;;;16.40;99.90;;;;;;4995331;28;20073;-73
2023/09/10 02:51:19;;;;;;;5.38;3.85;;;16.40;99.90;;;;;;4995217;28;20483;-73
2023/09/10 02:53:44;;;;;;;7.80;4.65;;;16.40;99.90;;;;;;4996028;28;20093;-73
2023/09/10 02:56:10;;;;;;;6.40;4.50;;;16.40;99.90;;;;;;4996297;28;20034;-73
2023/09/10 02:58:35;;;;;;;6.05;4.45;;;16.40;99.90;;;;;;4995913;28;20117;-74
2023/09/10 03:01:05;;;;;;;5.90;4.30;;;16.30;99.90;;;;;;4995257;28;20410;-73
2023/09/10 03:03:34;;;;;;;6.53;4.70;;;16.30;99.90;;;;;;4996571;28;20487;-73
2023/09/10 03:05:59;;;;;;;5.95;4.15;;;16.30;99.90;;;;;;4996528;28;20034;-73
2023/09/10 03:08:25;;;;;;;8.88;4.97;;;16.30;99.90;;;;;;4995524;28;20487;-74
2023/09/10 03:10:50;;;;;;;4.82;3.63;;;16.30;99.90;;;;;;4994535;28;20045;-74
2023/09/10 03:13:16;;;;;;;5.10;3.95;;;16.30;99.90;;;;;;4992520;28;20034;-73
2023/09/10 03:15:46;;;;;;;6.57;4.30;;;16.30;99.90;;;;;;4996217;28;20066;-73
2023/09/10 03:18:12;;;;;;;5.15;3.80;;;16.30;99.90;;;;;;4994785;28;20042;-74
2023/09/10 03:20:38;;;;;;;4.38;3.47;;;16.20;99.90;;;;;;4994832;28;20391;-73
2023/09/10 03:23:04;;;;;;;4.80;3.45;;;16.30;99.90;;;;;;4994904;28;20521;-74
2023/09/10 03:25:34;;;;;;;5.82;3.90;;;16.20;99.90;;;;;;4996116;28;20510;-73
2023/09/10 03:27:59;;;;;;;5.07;3.72;;;16.20;99.90;;;;;;4996000;28;20043;-73
2023/09/10 03:30:25;;;;;;;5.93;4.07;;;16.10;99.90;;;;;;4991153;28;20042;-73
2023/09/10 03:32:51;;;;;;;7.60;5.20;;;16.00;99.90;;;;;;4998021;28;20097;-73
2023/09/10 03:35:16;;;;;;;7.00;5.15;;;16.00;99.90;;;;;;5015595;28;20053;-73
2023/09/10 03:37:42;;;;;;;7.43;5.25;;;16.10;99.90;;;;;;5015403;28;20038;-73
2023/09/10 03:40:08;;;;;;;7.00;5.28;;;16.10;99.90;;;;;;5013604;28;20046;-74
2023/09/10 03:42:34;;;;;;;6.90;4.85;;;16.00;99.90;;;;;;5013297;28;20045;-73
2023/09/10 03:45:00;;;;;;;5.22;3.80;;;16.10;99.90;;;;;;5014634;28;20467;-74
2023/09/10 03:47:28;;;;;;;6.05;4.25;;;16.10;99.90;;;;;;5015325;28;20457;-74
2023/09/10 03:49:53;;;;;;;6.95;4.65;;;16.00;99.90;;;;;;5015111;28;20437;-74
2023/09/10 03:52:20;;;;;;;6.30;4.45;;;16.00;99.90;;;;;;5014476;28;20117;-74
2023/09/10 03:54:46;;;;;;;6.32;4.40;;;16.00;99.90;;;;;;5015452;28;20096;-73
2023/09/10 03:57:12;;;;;;;6.45;4.43;;;16.10;99.90;;;;;;5015100;28;20041;-73
2023/09/10 03:59:37;;;;;;;6.80;4.93;;;16.10;99.90;;;;;;5014721;28;20044;-73
2023/09/10 04:02:03;;;;;;;7.72;4.90;;;16.00;99.90;;;;;;5013893;28;20045;-73
2023/09/10 04:04:29;;;;;;;6.45;4.65;;;16.00;99.90;;;;;;5013088;28;20065;-74
2023/09/10 04:06:54;;;;;;;6.32;4.35;;;16.00;99.90;;;;;;5014871;28;20417;-74
2023/09/10 04:09:20;;;;;;;7.43;4.47;;;15.90;99.90;;;;;;5014572;28;20042;-74
2023/09/10 04:11:45;;;;;;;6.68;4.60;;;15.90;99.90;;;;;;5013117;28;20109;-74
2023/09/10 04:14:11;;;;;;;7.10;4.50;;;15.90;99.90;;;;;;5014888;28;20037;-73
2023/09/10 04:16:36;;;;;;;8.43;5.40;;;15.90;99.90;;;;;;5014801;28;20116;-74
2023/09/10 04:19:02;;;;;;;7.32;5.10;;;15.90;99.90;;;;;;5013970;28;20477;-73
2023/09/10 04:21:28;;;;;;;7.97;4.80;;;15.80;99.90;;;;;;5013969;28;20037;-74
2023/09/10 04:23:54;;;;;;;7.18;5.50;;;15.80;99.90;;;;;;5014641;28;20092;-73
2023/09/10 04:26:19;;;;;;;8.27;5.05;;;15.70;99.90;;;;;;5014525;28;20040;-73
2023/09/10 04:28:45;;;;;;;8.20;5.38;;;15.80;99.90;;;;;;5012186;28;20057;-73
2023/09/10 04:31:16;;;;;;;8.77;6.07;;;15.80;99.90;;;;;;5013758;28;20037;-73
2023/09/10 04:33:42;;;;;;;8.60;6.05;;;15.70;99.90;;;;;;5014464;28;20065;-74
2023/09/10 04:36:08;;;;;;;7.82;5.95;;;15.60;99.90;;;;;;4980626;28;20490;-74
2023/09/10 04:38:34;;;;;;;7.65;5.75;;;15.60;99.90;;;;;;5013630;28;20030;-74
2023/09/10 04:40:59;;;;;;;9.30;6.03;;;15.60;99.90;;;;;;4995917;28;20054;-74
2023/09/10 04:43:25;;;;;;;8.20;6.00;;;15.70;99.90;;;;;;5014304;28;20033;-73
2023/09/10 04:45:51;;;;;;;8.02;5.90;;;15.60;99.90;;;;;;4995882;28;20494;-73
2023/09/10 04:48:17;;;;;;;8.88;6.43;;;15.70;99.90;;;;;;5012682;28;20033;-74
2023/09/10 04:50:44;;;;;;;7.32;5.50;;;15.70;99.90;;;;;;4979983;28;20046;-73
2023/09/10 04:53:10;;;;;;;7.53;4.72;;;15.70;99.90;;;;;;5013515;28;20045;-73
2023/09/10 04:55:36;;;;;;;6.60;4.53;;;15.70;99.90;;;;;;5014025;28;20493;-73
2023/09/10 04:58:02;;;;;;;6.93;4.95;;;15.70;99.90;;;;;;4996538;28;20044;-73
2023/09/10 05:00:28;;;;;;;7.22;5.30;;;15.70;99.90;;;;;;5013233;28;20052;-74
2023/09/10 05:02:53;;;;;;;6.05;4.30;;;15.70;99.90;;;;;;5011879;28;20380;-73
2023/09/10 05:05:19;;;;;;;5.22;3.80;;;15.70;99.90;;;;;;5011457;28;20049;-73
2023/09/10 05:07:50;;;;;;;5.93;4.03;;;15.70;99.90;;;;;;5014086;28;20037;-73
2023/09/10 05:10:16;;;;;;;6.88;4.47;;;15.70;99.90;;;;;;5013848;28;20394;-73
2023/09/10 05:12:42;;;;;;;8.68;6.28;;;15.60;99.90;;;;;;5012519;28;20068;-73
2023/09/10 05:15:10;;;;;;;8.50;5.90;;;15.60;99.90;;;;;;4995661;28;20482;-74
2023/09/10 05:17:36;;;;;;;8.07;6.05;;;15.50;99.90;;;;;;4979991;28;20042;-73
2023/09/10 05:20:02;;;;;;;6.90;4.75;;;15.50;99.90;;;;;;5013305;28;20053;-73
2023/09/10 05:22:29;;;;;;;6.80;4.57;;;15.60;99.90;;;;;;5013069;28;20041;-73
2023/09/10 05:24:54;;;;;;;7.72;4.70;;;15.60;99.90;;;;;;5013810;28;20398;-73
2023/09/10 05:27:20;;;;;;;6.88;4.03;;;15.60;99.90;;;;;;5013611;28;20091;-73
2023/09/10 05:29:45;;;;;;;7.22;4.53;;;15.60;99.90;;;;;;4993886;28;20132;-73
2023/09/10 05:32:11;;;;;;;7.22;4.63;;;15.60;99.90;;;;;;5011926;28;20397;-73
2023/09/10 05:34:36;;;;;;;4.97;3.33;;;15.60;99.90;;;;;;5013398;28;20113;-73
2023/09/10 05:37:02;;;;;;;6.05;3.78;;;15.60;99.90;;;;;;5013512;28;20042;-73
2023/09/10 05:39:28;;;;;;;6.55;4.40;;;15.60;99.90;;;;;;5014345;28;20056;-73
2023/09/10 05:41:53;;;;;;;6.78;4.70;;;15.60;99.90;;;;;;5011876;28;20121;-73
2023/09/10 05:44:19;;;;;;;6.57;4.20;;;15.70;99.90;;;;;;5011816;28;20037;-73
2023/09/10 05:46:46;;;;;;;7.57;4.30;;;15.60;99.90;;;;;;5013318;28;20037;-73
2023/09/10 05:49:12;;;;;;;8.00;6.13;;;15.60;99.90;;;;;;5013760;28;20046;-73
2023/09/10 05:51:38;;;;;;;9.95;6.80;;;15.60;99.90;;;;;;5010385;28;20048;-73
2023/09/10 05:54:03;;;;;;;9.68;7.20;;;15.70;99.90;;;;;;5012592;28;20038;-73
2023/09/10 05:56:29;;;;;;;11.70;8.35;;;15.60;99.90;;;;;;5013330;28;20068;-73
2023/09/10 05:58:55;;;;;;;8.40;6.38;;;15.70;99.90;;;;;;5016232;28;20441;-73
2023/09/10 06:01:21;;;;;;;8.82;6.30;;;15.70;99.90;;;;;;5011697;28;20088;-73
2023/09/10 06:03:46;;;;;;;8.95;6.15;;;15.70;99.90;;;;;;5013536;28;20383;-73
2023/09/10 06:06:12;;;;;;;9.43;7.03;;;15.70;99.90;;;;;;5013438;28;20040;-73
2023/09/10 06:08:37;;;;;;;9.60;7.65;;;15.80;99.90;;;;;;5013582;28;20112;-73
2023/09/10 06:11:03;;;;;;;8.30;6.57;;;15.70;99.90;;;;;;5011918;28;20501;-73
2023/09/10 06:13:30;;;;;;;10.30;7.32;;;15.70;99.90;;;;;;5013032;28;20438;-73
2023/09/10 06:15:56;;;;;;;8.57;6.75;;;15.70;99.90;;;;;;5008383;28;20390;-73
2023/09/10 06:18:22;;;;;;;10.35;7.05;;;15.70;99.90;;;;;;4991448;28;20042;-73
2023/09/10 06:20:48;;;;;;;10.70;8.48;;;15.70;99.90;;;;;;5012419;28;20121;-73
2023/09/10 06:23:13;;;;;;;13.93;10.60;;;15.80;99.90;;;;;;5013490;28;20117;-73
2023/09/10 06:25:39;;;;;;;14.05;10.82;;;15.90;99.90;;;;;;5012390;28;20061;-73
2023/09/10 06:28:05;;;;;;;14.60;12.50;;;15.90;99.90;;;;;;5013001;28;20041;-73
2023/09/10 06:30:31;;;;;;;11.95;10.07;;;16.00;99.90;;;;;;5012810;28;20494;-73
2023/09/10 06:32:56;;;;;;;11.20;8.25;;;16.10;99.90;;;;;;5013236;28;20058;-73
2023/09/10 06:35:22;;;;;;;12.18;9.45;;;16.10;99.90;;;;;;5012366;28;20050;-73
2023/09/10 06:37:48;;;;;;;12.52;10.30;;;16.20;99.90;;;;;;5013100;28;20034;-73
2023/09/10 06:40:14;;;;;;;12.30;9.38;;;16.20;99.90;;;;;;5012916;28;20049;-73
2023/09/10 06:42:40;;;;;;;10.85;8.68;;;16.30;99.90;;;;;;5013332;28;20560;-73
2023/09/10 06:45:06;;;;;;;11.73;9.32;;;16.30;99.90;;;;;;5009476;28;20052;-73
2023/09/10 06:47:31;;;;;;;12.13;9.20;;;16.40;99.90;;;;;;5011311;28;20774;-73
2023/09/10 06:49:57;;;;;;;12.98;10.90;;;16.50;99.90;;;;;;5012823;28;20568;-73
2023/09/10 06:52:22;;;;;;;12.52;9.45;;;16.50;99.90;;;;;;5012025;28;20041;-73
2023/09/10 06:54:48;;;;;;;13.80;10.10;;;16.60;99.90;;;;;;5014598;28;20033;-73
2023/09/10 06:57:13;;;;;;;14.38;11.32;;;16.70;99.90;;;;;;5015178;28;20021;-73
2023/09/10 06:59:39;;;;;;;22.48;14.75;;;16.70;99.90;;;;;;5025601;28;20490;-73
2023/09/10 07:02:06;;;;;;;20.25;17.00;;;16.80;99.90;;;;;;5001005;28;20042;-74
2023/09/10 07:04:31;;;;;;;22.73;19.77;;;16.80;99.90;;;;;;5005477;28;20046;-74
2023/09/10 07:06:57;;;;;;;24.30;20.88;;;17.00;99.90;;;;;;5003104;28;20041;-74
2023/09/10 07:09:23;;;;;;;26.02;23.23;;;17.10;99.90;;;;;;5016828;28;20513;-74
2023/09/10 07:11:50;;;;;;;33.58;29.90;;;17.10;99.90;;;;;;5012082;28;20034;-74
2023/09/10 07:14:16;;;;;;;32.83;29.23;;;17.30;99.90;;;;;;5016214;28;20041;-74
2023/09/10 07:16:42;;;;;;;34.00;30.10;;;17.40;99.90;;;;;;5008760;28;20030;-74
2023/09/10 07:19:08;;;;;;;30.88;27.23;;;17.50;99.90;;;;;;5010827;28;20510;-74
2023/09/10 07:21:33;;;;;;;29.52;26.45;;;17.60;99.90;;;;;;5007649;28;20036;-74
2023/09/10 07:23:59;;;;;;;36.22;32.30;;;17.60;99.90;;;;;;5006745;28;20042;-74
2023/09/10 07:26:25;;;;;;;38.15;33.83;;;17.70;99.90;;;;;;5013419;28;20565;-73
2023/09/10 07:28:50;;;;;;;40.75;36.40;;;17.80;99.90;;;;;;5015259;28;20050;-74
2023/09/10 07:31:16;;;;;;;38.53;34.42;;;17.90;99.90;;;;;;5004729;28;20033;-74
2023/09/10 07:33:41;;;;;;;42.35;37.75;;;18.10;99.90;;;;;;5016130;28;20041;-74
2023/09/10 07:36:07;;;;;;;40.67;36.38;;;18.20;99.90;;;;;;5015266;28;20041;-74
2023/09/10 07:38:33;;;;;;;39.45;35.33;;;18.30;99.90;;;;;;4997615;28;20061;-74
2023/09/10 07:40:58;;;;;;;40.15;35.88;;;18.40;99.90;;;;;;5014499;28;20092;-71
2023/09/10 07:43:24;;;;;;;38.05;33.88;;;18.50;99.90;;;;;;5014846;28;20042;-71
2023/09/10 07:45:50;;;;;;;38.80;34.75;;;18.60;99.90;;;;;;5013351;28;20454;-74
2023/09/10 07:48:15;;;;;;;37.90;33.88;;;18.80;99.90;;;;;;4995756;28;20037;-74
2023/09/10 07:50:42;;;;;;;39.03;34.92;;;19.00;99.90;;;;;;5019382;28;20557;-75
2023/09/10 07:53:07;;;;;;;36.92;32.78;;;19.10;99.90;;;;;;5009666;28;20074;-74
2023/09/10 07:55:35;;;;;;;36.03;32.33;;;19.20;99.90;;;;;;5008058;28;20077;-74
2023/09/10 07:58:02;;;;;;;38.17;34.25;;;19.40;99.90;;;;;;5011639;28;20050;-74
2023/09/10 08:00:29;;;;;;;41.80;37.47;;;19.60;99.90;;;;;;5005581;28;20050;-75
2023/09/10 08:02:55;;;;;;;41.30;37.10;;;19.80;99.90;;;;;;5011797;28;20093;-74
2023/09/10 08:05:20;;;;;;;35.47;31.77;;;19.80;99.90;;;;;;4996568;28;20045;-74
2023/09/10 08:07:46;;;;;;;36.50;32.88;;;19.90;99.90;;;;;;5006735;28;20042;-74
2023/09/10 08:10:11;;;;;;;38.13;34.15;;;20.00;99.90;;;;;;5014236;28;20091;-74
2023/09/10 08:12:37;;;;;;;35.75;31.85;;;20.10;99.90;;;;;;5010436;28;20569;-75
2023/09/10 08:15:04;;;;;;;33.88;30.15;;;20.20;99.90;;;;;;5006643;28;20037;-74
2023/09/10 08:17:29;;;;;;;29.70;25.38;;;20.30;99.90;;;;;;4993315;28;20113;-75
2023/09/10 08:19:55;;;;;;;28.63;25.65;;;20.50;99.90;;;;;;5004412;28;20184;-74
2023/09/10 08:22:21;;;;;;;31.88;28.65;;;20.70;99.90;;;;;;5006254;28;20413;-74
2023/09/10 08:24:48;;;;;;;31.23;28.13;;;20.70;99.90;;;;;;5009507;28;20065;-74
2023/09/10 08:27:13;;;;;;;30.25;27.20;;;20.70;99.90;;;;;;5010718;28;20045;-74
2023/09/10 08:29:39;;;;;;;27.45;24.70;;;20.80;99.90;;;;;;5014173;28;20110;-74
2023/09/10 08:32:05;;;;;;;29.40;26.45;;;20.90;99.90;;;;;;5012803;28;20045;-74
2023/09/10 08:34:30;;;;;;;26.58;23.77;;;21.00;99.90;;;;;;5011442;28;20054;-74
2023/09/10 08:36:56;;;;;;;25.88;23.15;;;21.10;99.90;;;;;;4993140;28;20042;-75
2023/09/10 08:39:22;;;;;;;23.83;21.48;;;21.20;99.90;;;;;;5005100;28;20030;-74
2023/09/10 08:42:14;;;;;;;25.40;22.77;;;21.20;99.90;;;;;;5005255;28;20038;-75
2023/09/10 08:44:41;;;;;;;;;;;21.30;99.90;;;;;;5007380;28;21051;-75
2023/09/10 08:47:08;;;;;;;22.10;19.75;;;21.40;99.90;;;;;;5010008;28;19917;-75
2023/09/10 08:49:40;;;;;;;19.80;16.83;;;21.60;99.90;;;;;;5008686;28;20046;-74
2023/09/10 08:52:07;;;;;;;19.45;17.45;;;21.70;99.90;;;;;;5011000;28;20418;-74
2023/09/10 08:54:32;;;;;;;18.95;17.10;;;21.90;99.90;;;;;;5007500;28;20025;-74
2023/09/10 08:57:00;;;;;;;17.05;15.25;;;21.90;99.90;;;;;;5010896;28;20486;-75
2023/09/10 08:59:26;;;;;;;19.83;17.00;;;22.10;99.90;;;;;;5010788;28;20471;-75
2023/09/10 09:01:53;;;;;;;17.42;15.52;;;22.20;99.90;;;;;;4994779;28;20103;-75
2023/09/10 09:04:19;;;;;;;16.83;15.02;;;22.30;99.90;;;;;;5010222;28;20069;-75
2023/09/10 09:06:51;;;;;;;17.05;13.45;;;22.30;99.90;;;;;;4978475;28;20516;-75
2023/09/10 09:09:18;;;;;;;14.60;13.07;;;22.40;99.90;;;;;;5007333;28;20120;-75
2023/09/10 09:11:45;;;;;;;16.08;14.25;;;22.40;99.90;;;;;;5011975;28;20037;-75
2023/09/10 09:14:12;;;;;;;16.23;13.15;;;22.60;99.90;;;;;;4998618;28;20041;-75
2023/09/10 09:16:40;;;;;;;16.83;14.40;;;22.60;99.90;;;;;;4985959;28;20045;-75
2023/09/10 09:19:11;;;;;;;17.75;14.57;;;22.80;99.90;;;;;;5004658;28;20137;-75
2023/09/10 09:21:39;;;;;;;14.68;12.55;;;22.90;99.90;;;;;;4991185;28;20057;-75
2023/09/10 09:24:07;;;;;;;14.68;13.13;;;22.90;99.90;;;;;;5009245;28;20046;-75
2023/09/10 09:26:33;;;;;;;14.77;12.20;;;23.00;99.90;;;;;;4989503;28;20046;-75
2023/09/10 09:29:00;;;;;;;18.63;14.23;;;23.10;99.90;;;;;;5011075;28;20034;-75
2023/09/10 09:31:25;;;;;;;15.50;13.18;;;23.30;99.90;;;;;;5010033;28;20548;-75
2023/09/10 09:33:52;;;;;;;14.57;13.10;;;23.40;99.90;;;;;;5011856;28;20050;-75
2023/09/10 09:36:18;;;;;;;15.85;13.98;;;23.50;99.90;;;;;;5009135;28;20092;-75
2023/09/10 09:38:48;;;;;;;14.13;12.70;;;23.50;99.90;;;;;;5012914;28;20402;-75
2023/09/10 09:41:15;;;;;;;15.85;13.75;;;23.50;99.90;;;;;;4999936;28;20080;-75
2023/09/10 09:43:41;;;;;;;16.10;12.48;;;23.60;99.90;;;;;;5001511;28;20034;-75
2023/09/10 09:46:06;;;;;;;17.42;12.02;;;23.60;99.90;;;;;;4992227;28;20395;-75
2023/09/10 09:48:33;;;;;;;18.40;13.35;;;23.70;99.90;;;;;;4993527;28;20325;-76
2023/09/10 09:50:59;;;;;;;15.07;12.60;;;23.70;99.90;;;;;;4995330;28;20042;-75
2023/09/10 09:53:30;;;;;;;13.73;11.43;;;23.80;99.90;;;;;;4995985;28;20398;-75
2023/09/10 09:55:56;;;;;;;15.30;12.30;;;23.80;99.90;;;;;;5001880;28;20485;-76
2023/09/10 09:58:22;;;;;;;19.30;13.27;;;24.00;99.90;;;;;;5003913;28;20066;-75
2023/09/10 10:00:48;;;;;;;14.82;11.15;;;24.10;99.90;;;;;;5012441;28;20493;-75
2023/09/10 10:03:14;;;;;;;15.18;11.85;;;24.10;99.90;;;;;;4995390;28;20058;-75
2023/09/10 10:05:40;;;;;;;16.15;12.95;;;24.20;99.90;;;;;;5009799;28;20034;-75
2023/09/10 10:08:06;;;;;;;14.90;10.90;;;24.20;99.90;;;;;;4994779;28;20473;-75
2023/09/10 10:10:34;;;;;;;15.07;12.40;;;24.30;99.90;;;;;;5013147;28;20069;-75
2023/09/10 10:13:01;;;;;;;14.57;12.32;;;24.50;99.90;;;;;;5012569;28;20034;-75
2023/09/10 10:15:27;;;;;;;16.45;12.52;;;24.40;99.90;;;;;;5009128;28;20149;-76
2023/09/10 10:17:54;;;;;;;13.43;11.55;;;24.50;99.90;;;;;;5011663;28;20049;-76
2023/09/10 10:20:21;;;;;;;14.63;11.73;;;24.50;99.90;;;;;;5016933;28;20046;-75
2023/09/10 10:22:47;;;;;;;11.82;10.52;;;24.50;99.90;;;;;;5010823;28;20112;-75
2023/09/10 10:25:12;;;;;;;13.60;10.60;;;24.50;99.90;;;;;;5011853;28;20093;-76
2023/09/10 10:27:42;;;;;;;11.95;10.73;;;24.60;99.90;;;;;;5012829;28;20072;-75
2023/09/10 10:30:08;;;;;;;14.40;12.30;;;24.60;99.90;;;;;;5010913;28;20121;-75
2023/09/10 10:32:42;;;;;;;15.65;12.43;;;24.70;99.90;;;;;;5014022;28;20073;-75
2023/09/10 10:35:11;;;;;;;13.77;12.18;;;24.70;99.90;;;;;;5016446;28;20042;-75
2023/09/10 10:37:47;;;;;;;12.40;10.85;;;24.70;99.90;;;;;;5013379;28;20069;-75
2023/09/10 10:40:18;;;;;;;14.50;11.32;;;24.70;99.90;;;;;;4995840;28;20045;-75
2023/09/10 10:42:58;;;;;;;12.63;11.25;;;24.80;99.90;;;;;;5015702;28;20042;-75
2023/09/10 10:45:25;;;;;;;13.60;12.18;;;24.80;99.90;;;;;;4997546;28;20116;-75
2023/09/10 10:47:50;;;;;;;11.93;10.50;;;24.90;99.90;;;;;;5014543;28;20053;-75
2023/09/10 10:50:36;;;;;;;12.70;10.82;;;24.90;99.90;;;;;;5013899;28;20494;-75
2023/09/10 10:53:15;;;;;;;14.82;11.70;;;25.00;99.90;;;;;;4990616;28;20483;-75
2023/09/10 10:55:41;;;;;;;12.27;10.80;;;25.00;99.90;;;;;;5008655;28;20394;-76
2023/09/10 10:58:07;;;;;;;12.57;11.00;;;25.00;99.90;;;;;;5014193;28;20490;-76
2023/09/10 11:00:33;;;;;;;12.43;11.10;;;25.00;99.90;;;;;;5012255;28;20071;-75
2023/09/10 11:03:13;;;;;;;12.52;10.27;;;25.10;99.90;;;;;;5008615;28;20383;-76
2023/09/10 11:08:29;;;;;;;11.73;9.93;;;25.20;99.90;;;;;;5011764;28;20038;-75
2023/09/10 11:10:55;;;;;;;15.43;10.65;;;25.30;99.90;;;;;;5002871;28;20053;-75
2023/09/10 11:13:24;;;;;;;15.10;10.90;;;25.30;99.90;;;;;;5009270;28;20111;-75
2023/09/10 11:16:04;;;;;;;12.85;10.75;;;25.30;99.90;;;;;;4996671;28;20375;-76
2023/09/10 11:18:36;;;;;;;13.55;10.43;;;25.40;99.90;;;;;;5015213;28;20185;-76
2023/09/10 11:21:04;;;;;;;12.10;10.63;;;25.40;99.90;;;;;;5013938;28;20044;-76
2023/09/10 11:23:31;;;;;;;14.20;10.13;;;25.40;99.90;;;;;;4994454;28;20430;-76
2023/09/10 11:26:14;;;;;;;14.65;11.23;;;25.40;99.90;;;;;;5013252;28;20034;-75
2023/09/10 11:28:52;;;;;;;14.07;10.63;;;25.40;99.90;;;;;;5015696;28;20041;-76
2023/09/10 11:34:17;;;;;;;13.85;10.40;;;25.50;99.90;;;;;;5006760;28;20491;-76
2023/09/10 11:36:43;;;;;;;12.85;10.82;;;25.40;99.90;;;;;;5013767;28;20081;-76
2023/09/10 11:39:09;;;;;;;14.45;10.75;;;25.50;99.90;;;;;;5008210;28;20052;-76
2023/09/10 11:41:35;;;;;;;13.40;10.18;;;25.40;99.90;;;;;;5011310;28;20037;-76
2023/09/10 11:44:04;;;;;;;13.07;11.38;;;25.50;99.90;;;;;;5013433;28;20122;-76
2023/09/10 11:46:29;;;;;;;15.88;9.93;;;25.50;99.90;;;;;;5006505;28;20565;-76
2023/09/10 11:48:55;;;;;;;17.05;10.68;;;25.50;99.90;;;;;;5025733;28;20128;-76
2023/09/10 11:51:20;;;;;;;14.38;10.43;;;25.60;99.90;;;;;;5006817;28;20042;-76
2023/09/10 11:53:46;;;;;;;12.90;9.75;;;25.60;99.90;;;;;;5014166;28;20038;-76
2023/09/10 11:56:12;;;;;;;13.95;9.80;;;25.60;99.90;;;;;;5007152;28;20398;-76
2023/09/10 11:58:38;;;;;;;16.27;10.07;;;25.60;99.90;;;;;;5014529;28;20463;-76
2023/09/10 12:01:04;;;;;;;12.07;9.30;;;25.70;99.90;;;;;;5007665;28;20042;-76
2023/09/10 12:03:33;;;;;;;13.50;9.90;;;25.80;99.90;;;;;;5013846;28;20037;-76
2023/09/10 12:05:58;;;;;;;11.73;8.95;;;25.80;99.90;;;;;;5004991;28;20509;-76
2023/09/10 12:08:24;;;;;;;11.45;10.13;;;25.80;99.90;;;;;;4973945;28;20045;-76
2023/09/10 12:10:52;;;;;;;13.85;9.68;;;25.90;99.90;;;;;;5007944;28;20069;-76
2023/09/10 12:13:19;;;;;;;15.18;9.65;;;25.90;99.90;;;;;;5004509;28;20062;-76
2023/09/10 12:15:45;;;;;;;12.82;9.10;;;25.90;99.90;;;;;;5006347;28;20042;-76
2023/09/10 12:18:11;;;;;;;12.57;8.90;;;25.80;99.90;;;;;;5005891;28;20407;-76
2023/09/10 12:20:37;;;;;;;14.00;9.77;;;25.80;99.90;;;;;;5010030;28;20045;-76
2023/09/10 12:23:04;;;;;;;12.65;8.82;;;25.90;99.90;;;;;;4994305;28;20038;-76
2023/09/10 12:25:29;;;;;;;12.63;8.70;;;25.90;99.90;;;;;;5006554;28;20042;-76
2023/09/10 12:27:56;;;;;;;14.40;9.00;;;25.90;99.90;;;;;;5004736;28;20099;-76
2023/09/10 12:30:22;;;;;;;15.70;9.15;;;26.00;99.90;;;;;;5010009;28;20038;-76
2023/09/10 12:32:48;;;;;;;16.08;10.30;;;26.00;99.90;;;;;;5004341;28;20050;-76
2023/09/10 12:35:14;;;;;;;14.02;9.45;;;26.00;99.90;;;;;;4999383;28;20099;-76
2023/09/10 12:37:53;;;;;;;16.58;9.10;;;26.00;99.90;;;;;;5013903;28;20049;-76
2023/09/10 12:40:20;;;;;;;17.00;8.55;;;26.10;99.90;;;;;;4993300;28;20421;-76
2023/09/10 12:42:48;;;;;;;15.43;9.05;;;26.10;99.90;;;;;;5011987;28;20045;-76